Time;durP1;ratioP1;P1;durP2;ratioP2;P2;SDS_P1;SDS_P2;PMS_P1;PMS_P2;Temp;Humidity;BMP_temperature;BMP_pressure;BME280_temperature;BME280_humidity;BME280_pressure;Samples;Min_cycle;Max_cycle;Signal;HPM_P1;HPM_P2
2022/09/22 00:00:34;;;;;;;1999.90;999.90;;;;;;;-144.65;100.00;64500.88;5033477;28;20034;-77
2022/09/22 00:02:59;;;;;;;1999.90;999.90;;;;;;;-144.65;100.00;64500.88;5033613;28;20025;-77
2022/09/22 00:05:25;;;;;;;1999.90;999.90;;;;;;;-144.65;100.00;64500.88;5013559;28;20119;-77
2022/09/22 00:07:52;;;;;;;1999.90;999.90;;;;;;;-144.65;100.00;64500.88;4993653;28;20506;-77
2022/09/22 00:10:21;;;;;;;1999.90;999.90;;;;;;;-144.65;100.00;64500.88;4993715;28;20764;-77
2022/09/22 00:12:49;;;;;;;1999.90;999.90;;;;;;;-144.65;100.00;64500.88;4994007;28;21058;-77
2022/09/22 00:15:16;;;;;;;1999.90;999.90;;;;;;;-144.65;100.00;64500.88;4994773;28;20534;-77
2022/09/22 00:17:42;;;;;;;1999.90;999.90;;;;;;;-144.65;100.00;64500.88;4994809;28;20376;-77
2022/09/22 00:20:12;;;;;;;1999.90;999.90;;;;;;;-144.65;100.00;64500.88;4993782;28;20026;-76
2022/09/22 00:22:38;;;;;;;1999.90;999.90;;;;;;;-144.65;100.00;64500.88;4992997;28;20118;-77
2022/09/22 00:25:04;;;;;;;1999.90;999.90;;;;;;;-144.65;100.00;64500.88;4993309;28;20082;-77
2022/09/22 00:27:29;;;;;;;1999.90;999.90;;;;;;;-144.65;100.00;64500.88;4993259;28;20554;-76
2022/09/22 00:29:55;;;;;;;1999.90;999.90;;;;;;;-144.65;100.00;64500.88;4993181;28;20114;-77
2022/09/22 00:32:21;;;;;;;1999.90;999.90;;;;;;;-144.65;100.00;64500.88;4993324;28;20391;-77
2022/09/22 00:34:46;;;;;;;1999.90;999.90;;;;;;;-144.65;100.00;64500.88;4993456;28;20483;-76
2022/09/22 00:37:11;;;;;;;1999.90;999.90;;;;;;;-144.65;100.00;64500.88;4992920;28;20030;-77
2022/09/22 00:39:37;;;;;;;1999.90;999.90;;;;;;;-144.65;100.00;64500.88;4992981;28;20042;-77
2022/09/22 00:42:03;;;;;;;1999.90;999.90;;;;;;;-144.65;100.00;64500.88;4992502;28;20053;-76
2022/09/22 00:44:29;;;;;;;1999.90;999.90;;;;;;;-144.65;100.00;64500.88;4992703;28;20026;-78
2022/09/22 00:46:54;;;;;;;1999.90;999.90;;;;;;;-144.65;100.00;64500.88;4992689;28;20026;-76
2022/09/22 00:49:31;;;;;;;1999.90;999.90;;;;;;;-144.65;100.00;64500.88;4992792;28;20029;-76
2022/09/22 00:51:57;;;;;;;1999.90;999.90;;;;;;;-144.65;100.00;64500.88;4992480;28;20090;-76
2022/09/22 00:54:23;;;;;;;1999.90;999.90;;;;;;;-144.65;100.00;64500.88;4992526;28;20019;-77
2022/09/22 00:57:13;;;;;;;1999.90;999.90;;;;;;;-144.65;100.00;64500.88;4992232;28;20369;-76
2022/09/22 00:59:40;;;;;;;1999.90;999.90;;;;;;;-144.65;100.00;64500.88;4992205;28;20058;-77
2022/09/22 01:02:06;;;;;;;1999.90;999.90;;;;;;;-144.65;100.00;64500.88;4992024;28;20065;-76
2022/09/22 01:04:31;;;;;;;1999.90;999.90;;;;;;;-144.65;100.00;64500.88;4975073;28;20034;-76
2022/09/22 01:06:58;;;;;;;1999.90;999.90;;;;;;;-144.65;100.00;64500.88;4975343;28;20076;-77
2022/09/22 01:09:25;;;;;;;1999.90;999.90;;;;;;;-144.65;100.00;64500.88;4993624;28;20049;-77
2022/09/22 01:11:50;;;;;;;1999.90;999.90;;;;;;;-144.65;100.00;64500.88;4994326;28;20458;-77
2022/09/22 01:14:48;;;;;;;1999.90;999.90;;;;;;;-144.65;100.00;64500.88;4993815;28;20068;-78
2022/09/22 01:17:13;;;;;;;1999.90;999.90;;;;;;;-144.65;100.00;64500.88;4976284;28;20133;-77
2022/09/22 01:20:14;;;;;;;1999.90;999.90;;;;;;;-144.65;100.00;64500.88;4992575;28;20098;-76
2022/09/22 01:23:19;;;;;;;1999.90;999.90;;;;;;;-144.65;100.00;64500.88;4978548;28;20407;-76
2022/09/22 01:26:06;;;;;;;1999.90;999.90;;;;;;;-144.65;100.00;64500.88;4978384;28;20094;-77
2022/09/22 01:28:56;;;;;;;1999.90;999.90;;;;;;;-144.65;100.00;64500.88;4996550;28;20037;-77
2022/09/22 01:31:59;;;;;;;1999.90;999.90;;;;;;;-144.65;100.00;64500.88;4997232;28;20065;-77
2022/09/22 01:34:36;;;;;;;1999.90;999.90;;;;;;;-144.65;100.00;64500.88;4984615;28;20065;-79
2022/09/22 01:37:25;;;;;;;1999.90;999.90;;;;;;;-144.65;100.00;64500.88;5003184;28;20041;-77
2022/09/22 01:39:57;;;;;;;1999.90;999.90;;;;;;;-144.65;100.00;64500.88;4999090;28;20030;-77
2022/09/22 01:42:32;;;;;;;1999.90;999.90;;;;;;;-144.65;100.00;64500.88;5005559;28;20041;-77
2022/09/22 01:45:04;;;;;;;1999.90;999.90;;;;;;;-144.65;100.00;64500.88;5000454;28;20030;-78
2022/09/22 01:47:39;;;;;;;1999.90;999.90;;;;;;;-144.65;100.00;64500.88;5017163;28;20037;-77
2022/09/22 01:50:24;;;;;;;1999.90;999.90;;;;;;;-144.65;100.00;64500.88;5016703;28;20788;-78
2022/09/22 01:52:52;;;;;;;1999.90;999.90;;;;;;;-144.65;100.00;64500.88;5015881;28;20503;-77
2022/09/22 01:55:26;;;;;;;1999.90;999.90;;;;;;;-144.65;100.00;64500.88;5003509;28;20479;-77
2022/09/22 01:57:59;;;;;;;1999.90;999.90;;;;;;;-144.65;100.00;64500.88;4997623;28;20077;-77
2022/09/22 02:00:25;;;;;;;1999.90;999.90;;;;;;;-144.65;100.00;64500.88;4999169;28;20042;-77
2022/09/22 02:03:15;;;;;;;1999.90;999.90;;;;;;;-144.65;100.00;64500.88;4998707;28;20171;-77
2022/09/22 02:05:50;;;;;;;1999.90;999.90;;;;;;;-144.65;100.00;64500.88;4984252;28;20034;-77
2022/09/22 02:08:25;;;;;;;1999.90;999.90;;;;;;;-144.65;100.00;64500.88;4996724;28;20372;-77
2022/09/22 02:10:52;;;;;;;1999.90;999.90;;;;;;;-144.65;100.00;64500.88;4995917;28;20137;-77
2022/09/22 02:13:18;;;;;;;1999.90;999.90;;;;;;;-144.65;100.00;64500.88;4996456;28;20438;-76
2022/09/22 02:16:04;;;;;;;1999.90;999.90;;;;;;;-144.65;100.00;64500.88;4995935;28;20026;-76
2022/09/22 02:18:47;;;;;;;1999.90;999.90;;;;;;;-144.65;100.00;64500.88;4995835;28;20038;-76
2022/09/22 02:21:13;;;;;;;1999.90;999.90;;;;;;;-144.65;100.00;64500.88;4995869;28;20129;-77
2022/09/22 02:23:40;;;;;;;1999.90;999.90;;;;;;;-144.65;100.00;64500.88;4978415;28;20479;-77
2022/09/22 02:26:07;;;;;;;1999.90;999.90;;;;;;;-144.65;100.00;64500.88;4996054;28;20077;-77
2022/09/22 02:28:36;;;;;;;1999.90;999.90;;;;;;;-144.65;100.00;64500.88;4986533;28;20430;-77
2022/09/22 02:31:03;;;;;;;1999.90;999.90;;;;;;;-144.65;100.00;64500.88;5015428;28;20463;-77
2022/09/22 02:33:32;;;;;;;1999.90;999.90;;;;;;;-144.65;100.00;64500.88;5016004;28;20026;-77
2022/09/22 02:36:19;;;;;;;1999.90;999.90;;;;;;;-144.65;100.00;64500.88;5014394;28;20080;-77
2022/09/22 02:38:59;;;;;;;1999.90;999.90;;;;;;;-144.65;100.00;64500.88;4995881;28;20028;-77
2022/09/22 02:41:39;;;;;;;1999.90;999.90;;;;;;;-144.65;100.00;64500.88;4999040;28;20549;-77
2022/09/22 02:44:17;;;;;;;1999.90;999.90;;;;;;;-144.65;100.00;64500.88;5014589;28;20032;-75
2022/09/22 02:46:48;;;;;;;1999.90;999.90;;;;;;;-144.65;100.00;64500.88;5016441;28;20060;-76
2022/09/22 02:49:17;;;;;;;1999.90;999.90;;;;;;;-144.65;100.00;64500.88;5020837;28;20049;-75
2022/09/22 02:51:45;;;;;;;1999.90;999.90;;;;;;;-144.65;100.00;64500.88;5023906;28;20113;-77
2022/09/22 02:54:13;;;;;;;1999.90;999.90;;;;;;;-144.65;100.00;64500.88;4998223;28;20159;-77
2022/09/22 02:56:39;;;;;;;1999.90;999.90;;;;;;;-144.65;100.00;64500.88;5014468;28;20033;-77
2022/09/22 02:59:05;;;;;;;1999.90;999.90;;;;;;;-144.65;100.00;64500.88;5014905;28;20026;-76
2022/09/22 03:01:30;;;;;;;1999.90;999.90;;;;;;;-144.65;100.00;64500.88;5015016;28;20040;-77
2022/09/22 03:03:56;;;;;;;1999.90;999.90;;;;;;;-144.65;100.00;64500.88;5015863;28;20540;-77
2022/09/22 03:06:21;;;;;;;1999.90;999.90;;;;;;;-144.65;100.00;64500.88;4996905;28;20022;-77
2022/09/22 03:08:46;;;;;;;1999.90;999.90;;;;;;;-144.65;100.00;64500.88;5018509;28;20053;-77
2022/09/22 03:11:12;;;;;;;1999.90;999.90;;;;;;;-144.65;100.00;64500.88;4997057;28;20025;-77
2022/09/22 03:13:37;;;;;;;1999.90;999.90;;;;;;;-144.65;100.00;64500.88;5014710;28;20088;-77
2022/09/22 03:16:02;;;;;;;1999.90;999.90;;;;;;;-144.65;100.00;64500.88;5014686;28;20081;-77
2022/09/22 03:18:28;;;;;;;1999.90;999.90;;;;;;;-144.65;100.00;64500.88;5015622;28;20029;-77
2022/09/22 03:20:53;;;;;;;1999.90;999.90;;;;;;;-144.65;100.00;64500.88;5014574;28;20534;-77
2022/09/22 03:23:18;;;;;;;1999.90;999.90;;;;;;;-144.65;100.00;64500.88;5015159;28;20025;-77
2022/09/22 03:25:44;;;;;;;1999.90;999.90;;;;;;;-144.65;100.00;64500.88;4997320;28;20029;-77
2022/09/22 03:28:09;;;;;;;1999.90;999.90;;;;;;;-144.65;100.00;64500.88;5014704;28;20049;-77
2022/09/22 03:30:36;;;;;;;1999.90;999.90;;;;;;;-144.65;100.00;64500.88;5014654;28;20482;-76
2022/09/22 03:33:03;;;;;;;1999.90;999.90;;;;;;;-144.65;100.00;64500.88;4996950;28;20060;-76
2022/09/22 03:35:28;;;;;;;1999.90;999.90;;;;;;;-144.65;100.00;64500.88;4981390;28;20026;-77
2022/09/22 03:37:53;;;;;;;1999.90;999.90;;;;;;;-144.65;100.00;64500.88;5014578;28;20382;-76
2022/09/22 03:40:20;;;;;;;1999.90;999.90;;;;;;;-144.65;100.00;64500.88;5014551;28;20394;-77
2022/09/22 03:42:46;;;;;;;1999.90;999.90;;;;;;;-144.65;100.00;64500.88;5014566;28;20524;-77
2022/09/22 03:45:11;;;;;;;1999.90;999.90;;;;;;;-144.65;100.00;64500.88;5014539;28;20120;-77
2022/09/22 03:47:36;;;;;;;1999.90;999.90;;;;;;;-144.65;100.00;64500.88;5014234;28;20033;-77
2022/09/22 03:50:02;;;;;;;1999.90;999.90;;;;;;;-144.65;100.00;64500.88;5014618;28;20479;-76
2022/09/22 03:52:27;;;;;;;1999.90;999.90;;;;;;;-144.65;100.00;64500.88;5013941;28;20121;-77
2022/09/22 03:54:53;;;;;;;1999.90;999.90;;;;;;;-144.65;100.00;64500.88;5014187;28;20050;-77
2022/09/22 03:57:18;;;;;;;1999.90;999.90;;;;;;;-144.65;100.00;64500.88;5014036;28;20045;-77
2022/09/22 03:59:44;;;;;;;1999.90;999.90;;;;;;;-144.65;100.00;64500.88;5014288;28;20025;-77
2022/09/22 04:02:10;;;;;;;1999.90;999.90;;;;;;;-144.65;100.00;64500.88;5012991;28;20075;-77
2022/09/22 04:04:36;;;;;;;1999.90;999.90;;;;;;;-144.65;100.00;64500.88;5014312;28;20044;-77
2022/09/22 04:07:02;;;;;;;1999.90;999.90;;;;;;;-144.65;100.00;64500.88;5014703;28;20537;-77
2022/09/22 04:09:27;;;;;;;1999.90;999.90;;;;;;;-144.65;100.00;64500.88;5015111;28;20069;-77
2022/09/22 04:11:52;;;;;;;1999.90;999.90;;;;;;;-144.65;100.00;64500.88;5015192;28;20096;-77
2022/09/22 04:14:18;;;;;;;1999.90;999.90;;;;;;;-144.65;100.00;64500.88;5015688;28;20494;-78
2022/09/22 04:16:44;;;;;;;1999.90;999.90;;;;;;;-144.65;100.00;64500.88;5013309;28;20042;-77
2022/09/22 04:19:10;;;;;;;1999.90;999.90;;;;;;;-144.65;100.00;64500.88;5014178;28;20085;-77
2022/09/22 04:21:35;;;;;;;1999.90;999.90;;;;;;;-144.65;100.00;64500.88;5013999;28;20434;-76
2022/09/22 04:24:01;;;;;;;1999.90;999.90;;;;;;;-144.65;100.00;64500.88;5014365;28;20036;-77
2022/09/22 04:26:27;;;;;;;1999.90;999.90;;;;;;;-144.65;100.00;64500.88;5013807;28;20022;-77
2022/09/22 04:28:52;;;;;;;1999.90;999.90;;;;;;;-144.65;100.00;64500.88;5014256;28;20117;-77
2022/09/22 04:31:18;;;;;;;1999.90;999.90;;;;;;;-144.65;100.00;64500.88;5014613;28;20018;-77
2022/09/22 04:33:44;;;;;;;1999.90;999.90;;;;;;;-144.65;100.00;64500.88;5014453;28;20494;-77
2022/09/22 04:36:09;;;;;;;1999.90;999.90;;;;;;;-144.65;100.00;64500.88;5014172;28;20022;-77
2022/09/22 04:38:34;;;;;;;1999.90;999.90;;;;;;;-144.65;100.00;64500.88;5014322;28;20116;-77
2022/09/22 04:41:00;;;;;;;1999.90;999.90;;;;;;;-144.65;100.00;64500.88;5013848;28;20030;-77
2022/09/22 04:43:26;;;;;;;1999.90;999.90;;;;;;;-144.65;100.00;64500.88;5013594;28;20034;-76
2022/09/22 04:45:52;;;;;;;1999.90;999.90;;;;;;;-144.65;100.00;64500.88;5013764;28;20100;-77
2022/09/22 04:48:18;;;;;;;1999.90;999.90;;;;;;;-144.65;100.00;64500.88;5014801;28;20025;-77
2022/09/22 04:50:43;;;;;;;1999.90;999.90;;;;;;;-144.65;100.00;64500.88;5016010;28;20394;-78
2022/09/22 04:53:09;;;;;;;1999.90;999.90;;;;;;;-144.65;100.00;64500.88;5015627;28;20030;-77
2022/09/22 04:55:34;;;;;;;1999.90;999.90;;;;;;;-144.65;100.00;64500.88;5015585;28;20030;-78
2022/09/22 04:58:00;;;;;;;1999.90;999.90;;;;;;;-144.65;100.00;64500.88;5014710;28;20034;-77
2022/09/22 05:00:28;;;;;;;1999.90;999.90;;;;;;;-144.65;100.00;64500.88;5014225;28;20584;-77
2022/09/22 05:02:54;;;;;;;1999.90;999.90;;;;;;;-144.65;100.00;64500.88;5013880;28;20026;-77
2022/09/22 05:05:23;;;;;;;1999.90;999.90;;;;;;;-144.65;100.00;64500.88;4980154;28;20022;-77
2022/09/22 05:07:53;;;;;;;1999.90;999.90;;;;;;;-144.65;100.00;64500.88;5011244;28;20108;-76
2022/09/22 05:10:21;;;;;;;1999.90;999.90;;;;;;;-144.65;100.00;64500.88;5004043;28;20124;-77
2022/09/22 05:12:48;;;;;;;1999.90;999.90;;;;;;;-144.65;100.00;64500.88;4993143;28;20554;-77
2022/09/22 05:15:13;;;;;;;1999.90;999.90;;;;;;;-144.65;100.00;64500.88;5006518;28;20022;-76
2022/09/22 05:17:47;;;;;;;1999.90;999.90;;;;;;;-144.65;100.00;64500.88;5017517;28;20104;-77
2022/09/22 05:20:13;;;;;;;1999.90;999.90;;;;;;;-144.65;100.00;64500.88;5012779;28;20034;-76
2022/09/22 05:22:40;;;;;;;1999.90;999.90;;;;;;;-144.65;100.00;64500.88;5012511;28;20033;-77
2022/09/22 05:25:11;;;;;;;1999.90;999.90;;;;;;;-144.65;100.00;64500.88;4997635;28;20029;-77
2022/09/22 05:27:42;;;;;;;1999.90;999.90;;;;;;;-144.65;100.00;64500.88;5019467;28;20113;-76
2022/09/22 05:30:08;;;;;;;1999.90;999.90;;;;;;;-144.65;100.00;64500.88;5020295;28;20033;-77
2022/09/22 05:32:33;;;;;;;1999.90;999.90;;;;;;;-144.65;100.00;64500.88;5007724;28;20022;-77
2022/09/22 05:34:58;;;;;;;1999.90;999.90;;;;;;;-144.65;100.00;64500.88;5020328;28;20056;-77
2022/09/22 05:37:23;;;;;;;1999.90;999.90;;;;;;;-144.65;100.00;64500.88;4998876;28;20109;-76
2022/09/22 05:39:49;;;;;;;1999.90;999.90;;;;;;;-144.65;100.00;64500.88;5017403;28;21418;-76
2022/09/22 05:42:14;;;;;;;1999.90;999.90;;;;;;;-144.65;100.00;64500.88;5022522;28;20030;-78
2022/09/22 05:44:39;;;;;;;1999.90;999.90;;;;;;;-144.65;100.00;64500.88;5023370;28;20386;-76
2022/09/22 05:47:05;;;;;;;1999.90;999.90;;;;;;;-144.65;100.00;64500.88;5025363;28;20150;-77
2022/09/22 05:49:30;;;;;;;1999.90;999.90;;;;;;;-144.65;100.00;64500.88;5018927;28;20030;-77
2022/09/22 05:51:56;;;;;;;1999.90;999.90;;;;;;;-144.65;100.00;64500.88;5022786;28;20029;-77
2022/09/22 05:54:23;;;;;;;1999.90;999.90;;;;;;;-144.65;100.00;64500.88;5021081;28;20212;-76
2022/09/22 05:56:48;;;;;;;1999.90;999.90;;;;;;;-144.65;100.00;64500.88;5019641;28;20025;-77
2022/09/22 05:59:13;;;;;;;1999.90;999.90;;;;;;;-144.65;100.00;64500.88;5023044;28;20037;-76
2022/09/22 06:01:39;;;;;;;1999.90;999.90;;;;;;;-144.65;100.00;64500.88;5021424;28;20036;-78
2022/09/22 06:04:04;;;;;;;1999.90;999.90;;;;;;;-144.65;100.00;64500.88;5022113;28;20022;-77
2022/09/22 06:06:30;;;;;;;1999.90;999.90;;;;;;;-144.65;100.00;64500.88;5019048;28;20076;-74
2022/09/22 06:08:55;;;;;;;1999.90;999.90;;;;;;;-144.65;100.00;64500.88;5018277;28;20072;-74
2022/09/22 06:11:20;;;;;;;1999.90;999.90;;;;;;;-144.65;100.00;64500.88;5001425;28;20033;-74
2022/09/22 06:13:49;;;;;;;1999.90;999.90;;;;;;;-144.65;100.00;64500.88;5023255;28;20022;-75
2022/09/22 06:16:15;;;;;;;1999.90;999.90;;;;;;;-144.65;100.00;64500.88;5023201;28;20026;-74
2022/09/22 06:18:49;;;;;;;1999.90;999.90;;;;;;;-144.65;100.00;64500.88;5023279;28;20033;-78
2022/09/22 06:21:15;;;;;;;1999.90;999.90;;;;;;;-144.65;100.00;64500.88;5021246;28;20065;-77
2022/09/22 06:23:41;;;;;;;1999.90;999.90;;;;;;;-144.65;100.00;64500.88;5018430;28;20061;-78
2022/09/22 06:26:06;;;;;;;1999.90;999.90;;;;;;;-144.65;100.00;64500.88;5016974;28;20056;-78
2022/09/22 06:28:32;;;;;;;1999.90;999.90;;;;;;;-144.65;100.00;64500.88;5023200;28;20049;-77
2022/09/22 06:30:58;;;;;;;1999.90;999.90;;;;;;;-144.65;100.00;64500.88;5024018;28;20041;-77
2022/09/22 06:33:24;;;;;;;1999.90;999.90;;;;;;;-144.65;100.00;64500.88;5024555;28;20089;-78
2022/09/22 06:35:49;;;;;;;1999.90;999.90;;;;;;;-144.65;100.00;64500.88;5024630;28;20080;-78
2022/09/22 06:38:14;;;;;;;1999.90;999.90;;;;;;;-144.65;100.00;64500.88;5024043;28;20433;-77
2022/09/22 06:40:43;;;;;;;1999.90;999.90;;;;;;;-144.65;100.00;64500.88;5025725;28;20033;-77
2022/09/22 06:43:21;;;;;;;1999.90;999.90;;;;;;;-144.65;100.00;64500.88;5021139;28;20076;-77
2022/09/22 06:45:49;;;;;;;1999.90;999.90;;;;;;;-144.65;100.00;64500.88;5029559;28;20026;-76
2022/09/22 06:48:15;;;;;;;1999.90;999.90;;;;;;;-144.65;100.00;64500.88;5030301;28;20553;-76
2022/09/22 06:50:47;;;;;;;1999.90;999.90;;;;;;;-144.65;100.00;64500.88;5026595;28;20064;-76
2022/09/22 06:53:12;;;;;;;1999.90;999.90;;;;;;;-144.65;100.00;64500.88;5023884;28;20108;-78
2022/09/22 06:55:40;;;;;;;1999.90;999.90;;;;;;;-144.65;100.00;64500.88;5018005;28;20483;-76
2022/09/22 06:58:05;;;;;;;1999.90;999.90;;;;;;;-144.65;100.00;64500.88;5017775;28;20026;-78
2022/09/22 07:00:31;;;;;;;1999.90;999.90;;;;;;;-144.65;100.00;64500.88;5017193;28;20033;-77
2022/09/22 07:03:14;;;;;;;1999.90;999.90;;;;;;;-144.65;100.00;64500.88;5017018;28;20096;-78
2022/09/22 07:05:39;;;;;;;1999.90;999.90;;;;;;;-144.65;100.00;64500.88;5023839;23;20077;-81
2022/09/22 07:08:05;;;;;;;1999.90;999.90;;;;;;;-144.65;100.00;64500.88;5032148;28;20006;-80
2022/09/22 07:10:36;;;;;;;1999.90;999.90;;;;;;;-144.65;100.00;64500.88;5035677;28;20471;-79
2022/09/22 07:13:04;;;;;;;1999.90;999.90;;;;;;;-144.65;100.00;64500.88;5039584;28;20006;-78
2022/09/22 07:15:29;;;;;;;1999.90;999.90;;;;;;;-144.65;100.00;64500.88;5027268;28;20025;-80
2022/09/22 07:17:55;;;;;;;1999.90;999.90;;;;;;;-144.65;100.00;64500.88;5023596;28;20064;-81
2022/09/22 07:20:20;;;;;;;1999.90;999.90;;;;;;;-144.65;100.00;64500.88;5019822;28;20470;-78
2022/09/22 07:22:46;;;;;;;1999.90;999.90;;;;;;;-144.65;100.00;64500.88;5016553;28;20026;-78
2022/09/22 07:25:12;;;;;;;1999.90;999.90;;;;;;;-144.65;100.00;64500.88;5018668;28;20089;-78
2022/09/22 07:27:37;;;;;;;1999.90;999.90;;;;;;;-144.65;100.00;64500.88;5019508;28;20435;-79
2022/09/22 07:30:03;;;;;;;1999.90;999.90;;;;;;;-144.65;100.00;64500.88;5021114;28;20022;-78
2022/09/22 07:32:34;;;;;;;1999.90;999.90;;;;;;;-144.65;100.00;64500.88;5020734;28;20505;-79
2022/09/22 07:35:00;;;;;;;1999.90;999.90;;;;;;;-144.65;100.00;64500.88;5007650;28;20018;-79
2022/09/22 07:37:28;;;;;;;1999.90;999.90;;;;;;;-144.65;100.00;64500.88;5017853;28;20050;-77
2022/09/22 07:39:54;;;;;;;1999.90;999.90;;;;;;;-144.65;100.00;64500.88;5018154;28;20030;-77
2022/09/22 07:42:19;;;;;;;1999.90;999.90;;;;;;;-144.65;100.00;64500.88;5016895;28;20399;-77
2022/09/22 07:50:16;;;;;;;1999.90;999.90;;;;;;;-144.65;100.00;64500.88;5034277;28;20068;-79
2022/09/22 07:52:41;;;;;;;1999.90;999.90;;;;;;;-144.65;100.00;64500.88;5018246;28;20505;-80
2022/09/22 07:55:07;;;;;;;1999.90;999.90;;;;;;;-144.65;100.00;64500.88;5018785;28;20022;-80
2022/09/22 07:57:32;;;;;;;1999.90;999.90;;;;;;;-144.65;100.00;64500.88;4999882;28;20033;-78
2022/09/22 07:59:58;;;;;;;1999.90;999.90;;;;;;;-144.65;100.00;64500.88;4997391;28;20099;-78
2022/09/22 08:02:27;;;;;;;1999.90;999.90;;;;;;;-144.65;100.00;64500.88;5017727;28;20060;-78
2022/09/22 08:04:55;;;;;;;1999.90;999.90;;;;;;;-144.65;100.00;64500.88;5017853;28;20057;-78
2022/09/22 08:07:20;;;;;;;1999.90;999.90;;;;;;;-144.65;100.00;64500.88;5015380;28;20474;-77
2022/09/22 08:09:45;;;;;;;1999.90;999.90;;;;;;;-144.65;100.00;64500.88;5014981;28;20036;-79
2022/09/22 08:12:11;;;;;;;1999.90;999.90;;;;;;;-144.65;100.00;64500.88;5019876;28;20433;-78
2022/09/22 08:14:36;;;;;;;1999.90;999.90;;;;;;;-144.65;100.00;64500.88;5013235;28;20040;-77
2022/09/22 08:17:02;;;;;;;1999.90;999.90;;;;;;;-144.65;100.00;64500.88;5013993;28;20112;-78
2022/09/22 08:19:32;;;;;;;1999.90;999.90;;;;;;;-144.65;100.00;64500.88;5014639;28;20121;-77
2022/09/22 08:21:58;;;;;;;1999.90;999.90;;;;;;;-144.65;100.00;64500.88;5015573;28;20561;-78
2022/09/22 08:24:23;;;;;;;1999.90;999.90;;;;;;;-144.65;100.00;64500.88;4996764;28;20066;-79
2022/09/22 08:26:51;;;;;;;1999.90;999.90;;;;;;;-144.65;100.00;64500.88;5014711;28;20113;-78
2022/09/22 08:29:16;;;;;;;1999.90;999.90;;;;;;;-144.65;100.00;64500.88;5013519;28;20524;-81
2022/09/22 08:31:44;;;;;;;1999.90;999.90;;;;;;;-144.65;100.00;64500.88;5013494;28;20105;-75
2022/09/22 08:34:10;;;;;;;1999.90;999.90;;;;;;;-144.65;100.00;64500.88;5011937;28;20437;-76
2022/09/22 08:36:36;;;;;;;1999.90;999.90;;;;;;;-144.65;100.00;64500.88;5015554;28;20026;-80
2022/09/22 08:39:02;;;;;;;1999.90;999.90;;;;;;;-144.65;100.00;64500.88;5018278;28;20021;-78
2022/09/22 08:41:46;;;;;;;1999.90;999.90;;;;;;;-144.65;100.00;64500.88;5018708;28;20113;-78
2022/09/22 08:44:19;;;;;;;1999.90;999.90;;;;;;;-144.65;100.00;64500.88;5017367;28;20030;-77
2022/09/22 08:46:46;;;;;;;1999.90;999.90;;;;;;;-144.65;100.00;64500.88;5018228;28;20029;-76
2022/09/22 08:52:47;;;;;;;1999.90;999.90;;;;;;;-144.65;100.00;64500.88;5013655;28;20120;-77
2022/09/22 08:55:22;;;;;;;1999.90;999.90;;;;;;;-144.65;100.00;64500.88;4936303;29;20068;-77
2022/09/22 08:58:03;;;;;;;1999.90;999.90;;;;;;;-144.65;100.00;64500.88;4954099;29;20088;-77
2022/09/22 09:00:36;;;;;;;1999.90;999.90;;;;;;;-144.65;100.00;64500.88;4991678;28;20071;-77
2022/09/22 09:03:47;;;;;;;1999.90;999.90;;;;;;;-144.65;100.00;64500.88;5014427;28;20022;-78
2022/09/22 09:06:30;;;;;;;1999.90;999.90;;;;;;;-144.65;100.00;64500.88;5013381;28;20053;-78
2022/09/22 09:09:05;;;;;;;1999.90;999.90;;;;;;;-144.65;100.00;64500.88;5014937;28;20092;-78
2022/09/22 09:11:42;;;;;;;1999.90;999.90;;;;;;;-144.65;100.00;64500.88;5015866;28;20112;-77
2022/09/22 09:14:24;;;;;;;1999.90;999.90;;;;;;;-144.65;100.00;64500.88;5011845;28;20035;-76
2022/09/22 09:16:58;;;;;;;1999.90;999.90;;;;;;;-144.65;100.00;64500.88;4977295;28;20038;-77
2022/09/22 09:19:39;;;;;;;1999.90;999.90;;;;;;;-144.65;100.00;64500.88;4993920;28;20042;-76
2022/09/22 09:22:14;;;;;;;1999.90;999.90;;;;;;;-144.65;100.00;64500.88;4992398;28;20454;-76
2022/09/22 09:24:45;;;;;;;1999.90;999.90;;;;;;;-144.65;100.00;64500.88;4978087;28;20026;-82
2022/09/22 09:27:15;;;;;;;1999.90;999.90;;;;;;;-144.65;100.00;64500.88;4997657;28;20073;-83
2022/09/22 09:30:07;;;;;;;1999.90;999.90;;;;;;;-144.65;100.00;64500.88;5012646;28;20577;-81
2022/09/22 09:32:42;;;;;;;1999.90;999.90;;;;;;;-144.65;100.00;64500.88;5017271;28;20031;-83
2022/09/22 09:35:13;;;;;;;1999.90;999.90;;;;;;;-144.65;100.00;64500.88;5016775;28;20014;-81
2022/09/22 09:37:41;;;;;;;1999.90;999.90;;;;;;;-144.65;100.00;64500.88;5017277;28;20022;-85
2022/09/22 09:40:14;;;;;;;1999.90;999.90;;;;;;;-144.65;100.00;64500.88;5016747;28;20045;-83
2022/09/22 09:42:40;;;;;;;1999.90;999.90;;;;;;;-144.65;100.00;64500.88;5017406;28;20506;-83
2022/09/22 09:45:12;;;;;;;1999.90;999.90;;;;;;;-144.65;100.00;64500.88;5019403;28;20056;-82
2022/09/22 09:48:02;;;;;;;1999.90;999.90;;;;;;;-144.65;100.00;64500.88;5021059;28;20030;-82
2022/09/22 09:50:30;;;;;;;1999.90;999.90;;;;;;;-144.65;100.00;64500.88;5021032;28;20018;-82
2022/09/22 09:52:58;;;;;;;1999.90;999.90;;;;;;;-144.65;100.00;64500.88;5020493;28;20470;-82
2022/09/22 09:55:25;;;;;;;1999.90;999.90;;;;;;;-144.65;100.00;64500.88;5021007;28;20029;-82
2022/09/22 09:58:00;;;;;;;1999.90;999.90;;;;;;;-144.65;100.00;64500.88;5022005;28;20026;-82
2022/09/22 10:00:31;;;;;;;1999.90;999.90;;;;;;;-144.65;100.00;64500.88;5022157;28;20037;-82
2022/09/22 10:03:10;;;;;;;1999.90;999.90;;;;;;;-144.65;100.00;64500.88;5022500;28;20022;-83
2022/09/22 10:05:36;;;;;;;1999.90;999.90;;;;;;;-144.65;100.00;64500.88;4987554;28;20054;-84
2022/09/22 10:08:23;;;;;;;1999.90;999.90;;;;;;;-144.65;100.00;64500.88;5001911;28;20023;-82
2022/09/22 10:10:57;;;;;;;1999.90;999.90;;;;;;;-144.65;100.00;64500.88;5002564;28;20058;-83
2022/09/22 10:13:28;;;;;;;1999.90;999.90;;;;;;;-144.65;100.00;64500.88;5003036;28;20022;-82
2022/09/22 10:16:17;;;;;;;1999.90;999.90;;;;;;;-144.65;100.00;64500.88;5001730;28;20022;-81
2022/09/22 10:18:44;;;;;;;1999.90;999.90;;;;;;;-144.65;100.00;64500.88;5001862;28;20026;-83
2022/09/22 10:21:20;;;;;;;1999.90;999.90;;;;;;;-144.65;100.00;64500.88;5001471;28;20034;-83
2022/09/22 10:23:56;;;;;;;1999.90;999.90;;;;;;;-144.65;100.00;64500.88;5002634;28;20541;-82
2022/09/22 10:26:25;;;;;;;1999.90;999.90;;;;;;;-144.65;100.00;64500.88;4985697;28;20038;-82
2022/09/22 10:29:14;;;;;;;1999.90;999.90;;;;;;;-144.65;100.00;64500.88;5002513;28;20117;-82
2022/09/22 10:31:41;;;;;;;1999.90;999.90;;;;;;;-144.65;100.00;64500.88;5002573;28;20058;-81
2022/09/22 10:34:30;;;;;;;1999.90;999.90;;;;;;;-144.65;100.00;64500.88;5001633;28;20100;-83
2022/09/22 10:36:57;;;;;;;1999.90;999.90;;;;;;;-144.65;100.00;64500.88;4994876;28;20034;-85
2022/09/22 10:39:31;;;;;;;1999.90;999.90;;;;;;;-144.65;100.00;64500.88;5001971;28;20030;-85
2022/09/22 10:42:01;;;;;;;1999.90;999.90;;;;;;;-144.65;100.00;64500.88;5009255;28;20026;-82
2022/09/22 10:44:28;;;;;;;1999.90;999.90;;;;;;;-144.65;100.00;64500.88;5022181;28;20030;-81
2022/09/22 10:47:07;;;;;;;1999.90;999.90;;;;;;;-144.65;100.00;64500.88;5022011;28;20022;-83
2022/09/22 10:49:39;;;;;;;1999.90;999.90;;;;;;;-144.65;100.00;64500.88;5023173;28;20045;-83
2022/09/22 10:52:16;;;;;;;1999.90;999.90;;;;;;;-144.65;100.00;64500.88;5013242;28;20018;-79